Grabenstatt Airfield


Codes: EDJG/
Name: Grabenstatt Airfield
City: Grabenstatt
Country: Germany
Elevation: 1765 ft.

Photos at Grabenstatt Airfield


   Photos courtesy of SpottingLog. You can add your own sightings and photos by signing up for a free trial today.



No photos found.

Weather at Grabenstatt Airfield


Time (UTC)DescriptionTempratureWindCloud coverageVisibilityPressureHumidity
13-Jun-2024 03:00Overcast Clouds10°C2 mph, SW100%10000m1018hPa94%
13-Jun-2024 06:00Overcast Clouds11°C2 mph, W100%10000m1018hPa82%
13-Jun-2024 09:00Light Rain15°C4 mph, NW96%10000m1018hPa70%
13-Jun-2024 12:00Light Rain15°C7 mph, NW79%9062m1017hPa76%
13-Jun-2024 15:00Light Rain15°C2 mph, NW38%10000m1017hPa82%
13-Jun-2024 18:00Light Rain13°C0 mph, W26%10000m1018hPa89%
13-Jun-2024 21:00Clear Sky9°C4 mph, S8%10000m1019hPa94%
14-Jun-2024 00:00Scattered Clouds8°C4 mph, S32%10000m1018hPa94%
14-Jun-2024 03:00Broken Clouds8°C4 mph, S81%10000m1016hPa93%
14-Jun-2024 06:00Overcast Clouds12°C2 mph, S91%10000m1015hPa83%
14-Jun-2024 09:00Overcast Clouds18°C0 mph, NW100%10000m1014hPa52%
14-Jun-2024 12:00Overcast Clouds20°C4 mph, N100%10000m1014hPa48%
14-Jun-2024 15:00Light Rain18°C7 mph, NW100%10000m1015hPa73%
14-Jun-2024 18:00Light Rain14°C4 mph, SE100%10000m1016hPa92%
14-Jun-2024 21:00Broken Clouds13°C4 mph, S74%10000m1016hPa91%
15-Jun-2024 00:00Broken Clouds11°C4 mph, S80%10000m1014hPa95%
15-Jun-2024 03:00Scattered Clouds10°C7 mph, SE35%10000m1011hPa93%
15-Jun-2024 06:00Scattered Clouds16°C7 mph, SE25%10000m1007hPa70%
15-Jun-2024 09:00Scattered Clouds20°C16 mph, W46%10000m1011hPa56%
15-Jun-2024 12:00Light Rain14°C4 mph, W68%10000m1015hPa97%
15-Jun-2024 15:00Overcast Clouds15°C2 mph, W100%10000m1014hPa89%
15-Jun-2024 18:00Light Rain13°C2 mph, NW100%10000m1015hPa97%
15-Jun-2024 21:00Light Rain12°C2 mph, SE100%10000m1014hPa96%
16-Jun-2024 00:00Light Rain12°C0 mph, N100%10000m1014hPa97%
16-Jun-2024 03:00Light Rain12°C4 mph, S100%10000m1014hPa98%
16-Jun-2024 06:00Light Rain15°C4 mph, S94%10000m1015hPa88%
16-Jun-2024 09:00Broken Clouds21°C2 mph, N57%10000m1014hPa53%
16-Jun-2024 12:00Scattered Clouds21°C7 mph, N50%10000m1013hPa58%
16-Jun-2024 15:00Light Rain21°C7 mph, N70%10000m1013hPa64%
16-Jun-2024 18:00Light Rain17°C2 mph, N86%10000m1015hPa91%
16-Jun-2024 21:00Overcast Clouds14°C2 mph, SW100%10000m1017hPa95%
17-Jun-2024 00:00Overcast Clouds13°C2 mph, SW86%10000m1017hPa95%
17-Jun-2024 03:00Broken Clouds14°C2 mph, SE72%10000m1017hPa94%
17-Jun-2024 06:00Broken Clouds17°C0 mph, SW54%10000m1017hPa85%
17-Jun-2024 09:00Few Clouds23°C4 mph, N17%10000m1016hPa58%
17-Jun-2024 12:00Light Rain24°C7 mph, NE15%10000m1015hPa57%
17-Jun-2024 15:00Light Rain25°C4 mph, NE10%10000m1014hPa62%
17-Jun-2024 18:00Light Rain21°C2 mph, NE19%10000m1015hPa87%
17-Jun-2024 21:00Light Rain17°C2 mph, S18%10000m1017hPa94%
18-Jun-2024 00:00Light Rain16°C4 mph, SW35%10000m1017hPa96%